Time;durP1;ratioP1;P1;durP2;ratioP2;P2;SDS_P1;SDS_P2;PMS_P1;PMS_P2;Temp;Humidity;BMP_temperature;BMP_pressure;BME280_temperature;BME280_humidity;BME280_pressure;Samples;Min_cycle;Max_cycle;Signal;HPM_P1;HPM_P2
2022/01/26 00:06:38;;;;;;;42.23;18.23;;;3.90;99.90;;;;;;5069216;28;20247;-77
2022/01/26 00:09:05;;;;;;;38.30;17.43;;;3.90;99.90;;;;;;5064313;28;20776;-77
2022/01/26 00:11:31;;;;;;;39.47;17.33;;;3.90;99.90;;;;;;5066761;28;20199;-77
2022/01/26 00:13:59;;;;;;;43.07;17.63;;;3.90;99.90;;;;;;5067227;28;20667;-77
2022/01/26 00:18:53;;;;;;;38.07;17.57;;;3.90;99.90;;;;;;5066703;28;20201;-77
2022/01/26 00:21:30;;;;;;;37.57;17.43;;;3.90;99.90;;;;;;5063957;28;20198;-77
2022/01/26 00:29:08;;;;;;;40.13;17.60;;;3.80;99.90;;;;;;5066439;28;20311;-77
2022/01/26 00:40:13;;;;;;;39.80;17.63;;;3.80;99.90;;;;;;5067640;28;20240;-77
2022/01/26 00:42:41;;;;;;;37.03;17.57;;;3.80;99.90;;;;;;5065855;28;20178;-77
2022/01/26 00:45:08;;;;;;;36.70;17.43;;;3.80;99.90;;;;;;5065683;28;20286;-77
2022/01/26 00:47:35;;;;;;;35.83;18.03;;;3.80;99.90;;;;;;5065505;28;20938;-77
2022/01/26 00:50:07;;;;;;;37.90;17.70;;;3.80;99.90;;;;;;5064203;28;20217;-77
2022/01/26 00:52:41;;;;;;;38.67;17.70;;;3.80;99.90;;;;;;5065316;28;20298;-77
2022/01/26 00:55:10;;;;;;;41.00;17.70;;;3.80;99.90;;;;;;5064400;28;20543;-77
2022/01/26 00:57:35;;;;;;;37.37;17.50;;;3.80;99.90;;;;;;5065348;28;20183;-77
2022/01/26 01:00:04;;;;;;;38.57;17.40;;;3.80;99.90;;;;;;5066198;28;20221;-77
2022/01/26 01:02:31;;;;;;;39.03;17.63;;;3.80;99.90;;;;;;5062594;28;20181;-77
2022/01/26 01:05:00;;;;;;;39.60;17.57;;;3.80;99.90;;;;;;5065053;28;20190;-77
2022/01/26 01:07:26;;;;;;;31.50;16.50;;;3.80;99.90;;;;;;5063376;28;20934;-77
2022/01/26 01:09:51;;;;;;;35.47;17.30;;;3.80;99.90;;;;;;5063690;28;20194;-77
2022/01/26 01:12:17;;;;;;;38.37;18.43;;;3.80;99.90;;;;;;5064546;28;20345;-76
2022/01/26 01:14:44;;;;;;;35.37;16.70;;;3.70;99.90;;;;;;5064827;28;20171;-77
2022/01/26 01:17:20;;;;;;;35.23;17.13;;;3.70;99.90;;;;;;5064183;28;20182;-77
2022/01/26 01:20:03;;;;;;;36.37;16.07;;;3.70;99.90;;;;;;5063892;28;20186;-77
2022/01/26 01:22:57;;;;;;;39.17;16.77;;;3.70;99.90;;;;;;5064152;28;20201;-77
2022/01/26 01:30:40;;;;;;;35.77;16.17;;;3.70;99.90;;;;;;5068030;28;20205;-78
2022/01/26 01:33:08;;;;;;;34.97;16.93;;;3.70;99.90;;;;;;5065158;28;20251;-77
2022/01/26 01:35:38;;;;;;;39.87;16.70;;;3.70;99.90;;;;;;5067252;28;20275;-75
2022/01/26 01:38:09;;;;;;;35.43;16.27;;;3.70;99.90;;;;;;5066363;28;20190;-75
2022/01/26 01:40:41;;;;;;;35.37;15.53;;;3.70;99.90;;;;;;5062422;28;20198;-75
2022/01/26 01:43:07;;;;;;;33.70;15.77;;;3.70;99.90;;;;;;5064146;28;20209;-75
2022/01/26 01:45:41;;;;;;;34.83;15.70;;;3.70;99.90;;;;;;5065202;28;20551;-75
2022/01/26 01:48:07;;;;;;;32.63;16.00;;;3.70;99.90;;;;;;5063788;28;20678;-75
2022/01/26 01:50:40;;;;;;;31.83;15.33;;;3.70;99.90;;;;;;5065047;28;20216;-75
2022/01/26 01:53:05;;;;;;;33.87;16.43;;;3.70;99.90;;;;;;5062473;28;20186;-75
2022/01/26 01:55:32;;;;;;;37.73;16.33;;;3.70;99.90;;;;;;5064065;28;20179;-75
2022/01/26 01:57:59;;;;;;;34.17;16.10;;;3.70;99.90;;;;;;5065493;28;20194;-75
2022/01/26 02:00:26;;;;;;;35.80;15.80;;;3.70;99.90;;;;;;5062192;28;20241;-75
2022/01/26 02:02:52;;;;;;;35.20;16.30;;;3.70;99.90;;;;;;5063074;28;20215;-75
2022/01/26 02:05:18;;;;;;;35.53;15.70;;;3.70;99.90;;;;;;5064859;28;20182;-75
2022/01/26 02:07:44;;;;;;;36.57;16.40;;;3.70;99.90;;;;;;5063679;28;20591;-75
2022/01/26 02:10:11;;;;;;;37.37;16.20;;;3.70;99.90;;;;;;5063841;28;20206;-75
2022/01/26 02:12:42;;;;;;;33.57;15.87;;;3.60;99.90;;;;;;5065276;28;20270;-75
2022/01/26 02:15:17;;;;;;;37.07;16.17;;;3.60;99.90;;;;;;5065182;28;20190;-75
2022/01/26 02:53:21;;;;;;;30.87;14.80;;;3.60;99.90;;;;;;5066385;28;20169;-75
2022/01/26 02:55:53;;;;;;;31.40;13.33;;;3.60;99.90;;;;;;5067029;28;20658;-75
2022/01/26 02:58:48;;;;;;;33.77;14.80;;;3.60;99.90;;;;;;5063232;28;20186;-75
2022/01/26 03:04:35;;;;;;;28.63;13.87;;;3.60;99.90;;;;;;5062981;28;20205;-75
2022/01/26 03:06:40;;;;;;;32.57;14.03;;;3.50;99.90;;;;;;5049182;28;20196;-75
2022/01/26 03:09:11;;;;;;;33.27;13.87;;;3.50;99.90;;;;;;5063773;28;20209;-75
2022/01/26 03:11:39;;;;;;;31.40;13.80;;;3.50;99.90;;;;;;5062854;28;20266;-75
2022/01/26 03:14:20;;;;;;;27.97;13.27;;;3.50;99.90;;;;;;5062659;28;20638;-75
2022/01/26 03:16:52;;;;;;;26.90;11.90;;;3.50;99.90;;;;;;5061931;28;20178;-75
2022/01/26 03:19:38;;;;;;;26.50;12.70;;;3.50;99.90;;;;;;5062304;28;20186;-75
2022/01/26 03:28:15;;;;;;;32.10;13.63;;;3.50;99.90;;;;;;5064421;28;20220;-75
2022/01/26 03:35:15;;;;;;;29.57;13.07;;;3.50;99.90;;;;;;5065953;28;20183;-75
2022/01/26 03:37:50;;;;;;;27.83;13.23;;;3.40;99.90;;;;;;5066706;28;20182;-75
2022/01/26 03:40:16;;;;;;;27.27;13.63;;;3.40;99.90;;;;;;5066601;28;20206;-75
2022/01/26 03:42:42;;;;;;;24.20;11.87;;;3.40;99.90;;;;;;5067239;28;20265;-75
2022/01/26 03:45:08;;;;;;;28.23;12.40;;;3.40;99.90;;;;;;5065513;28;20228;-75
2022/01/26 03:47:34;;;;;;;25.70;12.47;;;3.40;99.90;;;;;;5066403;28;20221;-75
2022/01/26 03:50:00;;;;;;;25.33;11.40;;;3.40;99.90;;;;;;5065248;28;20214;-75
2022/01/26 03:52:26;;;;;;;27.30;12.43;;;3.40;99.90;;;;;;5066162;28;20213;-75
2022/01/26 03:54:51;;;;;;;24.03;11.23;;;3.40;99.90;;;;;;5066964;28;20214;-75
2022/01/26 03:57:17;;;;;;;28.37;11.87;;;3.40;99.90;;;;;;5066292;28;20193;-75
2022/01/26 03:59:42;;;;;;;27.73;12.30;;;3.40;99.90;;;;;;5067956;28;20177;-75
2022/01/26 04:02:08;;;;;;;32.17;12.80;;;3.40;99.90;;;;;;5070822;28;20546;-75
2022/01/26 04:04:42;;;;;;;28.73;13.07;;;3.40;99.90;;;;;;5057090;28;20194;-75
2022/01/26 04:07:08;;;;;;;29.73;13.40;;;3.40;99.90;;;;;;5073674;28;20185;-75
2022/01/26 04:09:33;;;;;;;27.17;12.00;;;3.40;99.90;;;;;;5083769;28;20184;-75
2022/01/26 04:11:59;;;;;;;28.93;12.83;;;3.30;99.90;;;;;;5072782;28;20201;-75
2022/01/26 04:14:29;;;;;;;29.60;12.90;;;3.30;99.90;;;;;;5077672;28;20234;-75
2022/01/26 04:16:55;;;;;;;29.53;13.10;;;3.30;99.90;;;;;;5071365;28;20227;-75
2022/01/26 04:19:22;;;;;;;34.57;13.23;;;3.30;99.90;;;;;;5071368;28;20205;-75
2022/01/26 04:21:58;;;;;;;31.00;13.47;;;3.30;99.90;;;;;;5055777;28;20258;-75
2022/01/26 04:24:41;;;;;;;29.37;12.87;;;3.30;99.90;;;;;;5071279;28;20281;-75
2022/01/26 04:29:38;;;;;;;27.40;13.20;;;3.40;99.90;;;;;;5052183;28;20184;-75
2022/01/26 04:32:06;;;;;;;26.47;12.33;;;3.30;99.90;;;;;;5065442;28;20233;-75
2022/01/26 04:34:33;;;;;;;28.90;12.80;;;3.30;99.90;;;;;;5070624;28;20181;-74
2022/01/26 04:40:06;;;;;;;28.60;12.93;;;3.30;99.90;;;;;;5046512;28;20207;-75
2022/01/26 04:45:06;;;;;;;29.03;12.93;;;3.30;99.90;;;;;;5035081;28;20184;-75
2022/01/26 04:47:31;;;;;;;28.27;12.80;;;3.20;99.90;;;;;;5044469;28;20210;-75
2022/01/26 04:49:57;;;;;;;31.53;13.97;;;3.20;99.90;;;;;;5015034;28;20284;-75
2022/01/26 04:52:23;;;;;;;34.03;14.57;;;3.20;99.90;;;;;;5031872;28;20200;-75
2022/01/26 04:54:49;;;;;;;33.20;14.23;;;3.20;99.90;;;;;;5036782;28;20184;-75
2022/01/26 04:57:15;;;;;;;38.03;15.53;;;3.20;99.90;;;;;;5054214;28;20337;-75
2022/01/26 04:59:41;;;;;;;40.43;16.10;;;3.20;99.90;;;;;;5034656;28;20289;-75
2022/01/26 05:02:07;;;;;;;37.33;16.43;;;3.20;99.90;;;;;;5039896;28;20274;-75
2022/01/26 05:04:32;;;;;;;37.00;15.20;;;3.20;99.90;;;;;;5029704;28;20309;-75
2022/01/26 05:06:58;;;;;;;38.10;16.00;;;3.20;99.90;;;;;;5033663;28;20211;-75
2022/01/26 05:09:24;;;;;;;32.97;14.63;;;3.20;99.90;;;;;;5047670;28;20188;-75
2022/01/26 05:11:52;;;;;;;38.90;17.30;;;3.20;99.90;;;;;;5064187;28;20214;-75
2022/01/26 05:14:18;;;;;;;38.67;18.00;;;3.20;99.90;;;;;;5074484;28;20184;-75
2022/01/26 05:16:44;;;;;;;38.90;17.30;;;3.20;99.90;;;;;;5074731;28;20181;-75
2022/01/26 05:19:10;;;;;;;37.20;16.83;;;3.20;99.90;;;;;;5059508;28;20185;-75
2022/01/26 05:21:36;;;;;;;38.37;16.70;;;3.20;99.90;;;;;;5052923;28;20202;-75
2022/01/26 05:24:02;;;;;;;36.90;15.57;;;3.10;99.90;;;;;;5056084;28;20204;-75
2022/01/26 05:26:28;;;;;;;39.20;15.93;;;3.10;99.90;;;;;;5079391;28;20256;-75
2022/01/26 05:28:53;;;;;;;40.57;16.20;;;3.20;99.90;;;;;;5090061;28;20210;-75
2022/01/26 05:31:19;;;;;;;40.30;16.57;;;3.10;99.90;;;;;;5088840;28;20227;-75
2022/01/26 05:33:45;;;;;;;38.20;16.97;;;3.10;99.90;;;;;;5067470;28;20180;-75
2022/01/26 05:36:11;;;;;;;35.33;16.50;;;3.10;99.90;;;;;;5050738;28;20203;-75
2022/01/26 05:38:37;;;;;;;39.93;16.27;;;3.10;99.90;;;;;;5090108;28;20248;-75
2022/01/26 05:41:04;;;;;;;37.43;15.83;;;3.10;99.90;;;;;;5080048;28;20236;-75
2022/01/26 05:43:31;;;;;;;42.03;15.97;;;3.00;99.90;;;;;;5074804;28;20267;-75
2022/01/26 05:46:03;;;;;;;40.00;16.33;;;3.00;99.90;;;;;;5081253;28;20181;-76
2022/01/26 05:48:28;;;;;;;35.83;15.40;;;3.00;99.90;;;;;;5071718;28;20243;-76
2022/01/26 05:51:04;;;;;;;39.30;16.80;;;3.00;99.90;;;;;;5061867;28;20213;-76
2022/01/26 05:53:29;;;;;;;41.63;14.97;;;3.00;99.90;;;;;;5050170;28;20183;-76
2022/01/26 05:55:55;;;;;;;41.53;16.67;;;3.00;99.90;;;;;;5058212;28;20197;-76
2022/01/26 05:58:21;;;;;;;39.97;15.93;;;2.90;99.90;;;;;;5064093;28;20240;-76
2022/01/26 06:00:47;;;;;;;36.27;14.77;;;2.90;99.90;;;;;;5049130;28;20210;-76
2022/01/26 06:03:13;;;;;;;44.10;16.67;;;3.00;99.90;;;;;;5055654;28;20243;-76
2022/01/26 06:05:39;;;;;;;39.80;16.00;;;2.90;99.90;;;;;;5075504;28;20183;-76
2022/01/26 06:08:05;;;;;;;36.43;15.47;;;2.90;99.90;;;;;;5066581;28;20244;-76
2022/01/26 06:10:31;;;;;;;43.20;16.10;;;2.90;99.90;;;;;;5067139;28;20209;-76
2022/01/26 06:12:57;;;;;;;40.03;14.97;;;2.90;99.90;;;;;;5056495;28;20188;-76
2022/01/26 06:15:22;;;;;;;38.87;15.27;;;2.90;99.90;;;;;;5051975;28;20192;-76
2022/01/26 06:17:48;;;;;;;41.10;16.17;;;2.90;99.90;;;;;;5071849;28;20228;-76
2022/01/26 06:20:14;;;;;;;41.23;15.17;;;2.80;99.90;;;;;;5056990;28;20214;-76
2022/01/26 06:22:40;;;;;;;41.87;17.57;;;2.80;99.90;;;;;;5066970;28;20183;-76
2022/01/26 06:25:07;;;;;;;37.23;15.37;;;2.80;99.90;;;;;;5054933;28;20219;-76
2022/01/26 06:27:35;;;;;;;41.53;17.17;;;2.80;99.90;;;;;;5068191;28;20206;-76
2022/01/26 06:30:02;;;;;;;44.83;18.03;;;2.80;99.90;;;;;;5059396;28;20201;-76
2022/01/26 06:32:28;;;;;;;38.47;16.07;;;2.70;99.90;;;;;;5056409;28;20276;-76
2022/01/26 06:34:54;;;;;;;44.97;17.90;;;2.70;99.90;;;;;;5082613;28;20177;-76
2022/01/26 06:37:20;;;;;;;45.63;17.60;;;2.70;99.90;;;;;;5061449;28;20193;-76
2022/01/26 06:39:46;;;;;;;47.27;19.53;;;2.70;99.90;;;;;;5056662;28;20234;-76
2022/01/26 06:42:15;;;;;;;50.27;18.57;;;2.70;99.90;;;;;;5068260;28;20186;-76
2022/01/26 06:44:57;;;;;;;48.03;19.17;;;2.60;99.90;;;;;;5069183;28;20262;-76
2022/01/26 06:49:51;;;;;;;49.33;19.10;;;2.60;99.90;;;;;;5049892;28;20169;-76
2022/01/26 06:52:17;;;;;;;51.90;20.43;;;2.60;99.90;;;;;;5062866;28;20187;-76
2022/01/26 06:54:43;;;;;;;46.63;18.50;;;2.60;99.90;;;;;;5069463;28;20219;-76
2022/01/26 06:57:08;;;;;;;52.13;21.23;;;2.60;99.90;;;;;;5066583;28;20205;-76
2022/01/26 06:59:34;;;;;;;49.83;20.10;;;2.50;99.90;;;;;;5068125;28;20234;-76
2022/01/26 07:02:00;;;;;;;51.60;20.23;;;2.50;99.90;;;;;;5090357;28;20210;-78
2022/01/26 07:04:26;;;;;;;53.93;20.93;;;2.50;99.90;;;;;;5071567;28;20193;-76
2022/01/26 07:06:51;;;;;;;50.83;19.93;;;2.50;99.90;;;;;;5073381;28;20629;-76
2022/01/26 07:09:19;;;;;;;52.57;19.37;;;2.50;99.90;;;;;;5072439;28;20204;-76
2022/01/26 07:11:46;;;;;;;57.13;21.13;;;2.40;99.90;;;;;;5057384;28;20201;-77
2022/01/26 07:14:22;;;;;;;54.77;22.37;;;2.40;99.90;;;;;;5058271;28;20193;-76
2022/01/26 07:22:35;;;;;;;56.80;20.60;;;2.40;99.90;;;;;;5051250;28;20284;-77
2022/01/26 07:25:01;;;;;;;56.67;22.33;;;2.40;99.90;;;;;;5066158;28;20269;-77
2022/01/26 07:27:26;;;;;;;60.07;22.00;;;2.40;99.90;;;;;;5050202;28;20227;-77
2022/01/26 07:29:53;;;;;;;60.83;22.90;;;2.30;99.90;;;;;;5076566;28;20177;-76
2022/01/26 07:32:18;;;;;;;57.13;22.30;;;2.30;99.90;;;;;;5073203;28;20196;-76
2022/01/26 07:34:45;;;;;;;60.10;22.13;;;2.30;99.90;;;;;;5085165;28;20184;-76
2022/01/26 07:37:13;;;;;;;60.67;22.67;;;2.30;99.90;;;;;;5075695;28;20268;-76
2022/01/26 07:39:44;;;;;;;59.23;23.27;;;2.30;99.90;;;;;;5083634;28;20191;-76
2022/01/26 07:42:11;;;;;;;63.67;23.63;;;2.20;99.90;;;;;;5061433;28;20185;-75
2022/01/26 07:44:37;;;;;;;58.03;23.87;;;2.20;99.90;;;;;;5070855;28;20181;-75
2022/01/26 07:47:03;;;;;;;58.53;22.93;;;2.30;99.90;;;;;;5082357;28;20186;-75
2022/01/26 07:49:29;;;;;;;64.13;23.27;;;2.30;99.90;;;;;;5078958;28;20176;-75
2022/01/26 07:51:54;;;;;;;58.47;22.07;;;2.30;99.90;;;;;;5061824;28;20205;-75
2022/01/26 07:54:21;;;;;;;61.37;23.10;;;2.30;99.90;;;;;;5064342;28;20189;-75
2022/01/26 07:56:47;;;;;;;59.30;23.47;;;2.30;99.90;;;;;;5079492;28;20182;-76
2022/01/26 07:59:14;;;;;;;62.87;22.30;;;2.40;99.90;;;;;;5085552;28;20191;-75
2022/01/26 08:01:39;;;;;;;63.43;23.93;;;2.30;99.90;;;;;;5065356;28;20216;-76
2022/01/26 08:04:05;;;;;;;61.77;23.37;;;2.30;99.90;;;;;;5064197;28;20197;-75
2022/01/26 08:06:31;;;;;;;57.00;22.53;;;2.40;99.90;;;;;;5064077;28;20183;-75
2022/01/26 08:08:56;;;;;;;53.23;21.40;;;2.40;99.90;;;;;;5062648;28;20204;-76
2022/01/26 08:11:24;;;;;;;61.33;24.23;;;2.40;99.90;;;;;;5063946;28;20568;-76
2022/01/26 08:13:50;;;;;;;60.70;22.53;;;2.40;99.90;;;;;;5062656;28;20216;-76
2022/01/26 08:16:16;;;;;;;64.80;24.53;;;2.40;99.90;;;;;;5072764;28;20184;-76
2022/01/26 08:18:42;;;;;;;58.90;23.47;;;2.40;99.90;;;;;;5065980;28;20188;-76
2022/01/26 08:21:07;;;;;;;65.93;24.97;;;2.40;99.90;;;;;;5091532;28;20251;-77
2022/01/26 08:23:35;;;;;;;60.47;24.13;;;2.40;99.90;;;;;;5064078;28;20555;-77
2022/01/26 08:26:01;;;;;;;62.77;25.07;;;2.40;99.90;;;;;;5064718;28;20188;-77
2022/01/26 08:28:34;;;;;;;62.50;24.17;;;2.40;99.90;;;;;;5072300;28;20211;-77
2022/01/26 08:30:59;;;;;;;68.07;24.57;;;2.40;99.90;;;;;;5067507;28;20193;-76
2022/01/26 08:33:25;;;;;;;63.93;23.67;;;2.40;99.90;;;;;;5067393;28;20249;-76
2022/01/26 08:35:51;;;;;;;61.07;24.40;;;2.40;99.90;;;;;;5054561;28;20177;-77
2022/01/26 08:38:16;;;;;;;68.17;26.30;;;2.40;99.90;;;;;;5089253;28;20183;-76
2022/01/26 08:40:43;;;;;;;63.77;23.80;;;2.40;99.90;;;;;;5066861;28;20599;-76
2022/01/26 08:43:09;;;;;;;63.40;24.70;;;2.40;99.90;;;;;;5069084;28;20195;-76
2022/01/26 08:45:35;;;;;;;63.93;24.93;;;2.40;99.90;;;;;;5070125;28;20260;-76
2022/01/26 08:48:00;;;;;;;65.63;24.87;;;2.40;99.90;;;;;;5061926;28;20195;-76
2022/01/26 08:50:26;;;;;;;68.10;25.07;;;2.40;99.90;;;;;;5066686;28;20335;-76
2022/01/26 08:52:52;;;;;;;63.87;24.87;;;2.40;99.90;;;;;;5065509;28;20170;-76
2022/01/26 08:55:17;;;;;;;61.83;24.87;;;2.40;99.90;;;;;;5072289;28;20170;-76
2022/01/26 08:57:43;;;;;;;66.67;24.73;;;2.40;99.90;;;;;;5072344;28;20183;-76
2022/01/26 09:00:12;;;;;;;63.13;25.43;;;2.40;99.90;;;;;;5071078;28;20230;-76
2022/01/26 09:02:38;;;;;;;68.20;25.30;;;2.50;99.90;;;;;;5071919;28;20177;-76
2022/01/26 09:05:06;;;;;;;66.57;25.17;;;2.50;99.90;;;;;;5065834;28;20182;-76
2022/01/26 09:07:32;;;;;;;67.17;25.83;;;2.40;99.90;;;;;;5052110;28;20661;-76
2022/01/26 09:10:00;;;;;;;63.80;24.77;;;2.50;99.90;;;;;;5067234;28;20184;-76
2022/01/26 09:12:27;;;;;;;71.37;25.10;;;2.50;99.90;;;;;;5070007;28;20177;-76
2022/01/26 09:14:53;;;;;;;67.47;25.40;;;2.50;99.90;;;;;;5066861;28;20193;-76
2022/01/26 09:17:20;;;;;;;63.93;23.97;;;2.50;99.90;;;;;;5070823;28;20215;-76
2022/01/26 09:19:47;;;;;;;67.30;25.33;;;2.50;99.90;;;;;;5061804;28;20185;-76
2022/01/26 09:22:19;;;;;;;63.90;25.20;;;2.50;99.90;;;;;;5064500;28;20177;-76
2022/01/26 09:24:44;;;;;;;65.80;24.57;;;2.50;99.90;;;;;;5066477;28;20558;-76
2022/01/26 09:27:14;;;;;;;63.00;24.70;;;2.50;99.90;;;;;;5070813;28;20176;-76
2022/01/26 09:29:41;;;;;;;63.77;24.23;;;2.50;99.90;;;;;;5054260;28;20636;-76
2022/01/26 09:32:08;;;;;;;65.50;24.53;;;2.50;99.90;;;;;;5053792;28;20219;-76
2022/01/26 09:34:35;;;;;;;61.30;24.27;;;2.50;99.90;;;;;;5084666;28;20226;-76
2022/01/26 09:37:06;;;;;;;65.70;24.60;;;2.60;99.90;;;;;;5071525;28;20266;-76
2022/01/26 09:39:32;;;;;;;64.30;24.80;;;2.50;99.90;;;;;;5084221;28;20182;-76
2022/01/26 09:41:58;;;;;;;62.53;23.80;;;2.60;99.90;;;;;;5081413;28;20558;-76
2022/01/26 09:44:24;;;;;;;61.93;23.23;;;2.60;99.90;;;;;;5075036;28;20180;-76
2022/01/26 09:46:51;;;;;;;61.70;23.30;;;2.60;99.90;;;;;;5085636;28;20183;-76
2022/01/26 09:49:18;;;;;;;62.43;23.33;;;2.60;99.90;;;;;;5076243;28;20209;-76
2022/01/26 09:51:48;;;;;;;56.13;22.83;;;2.60;99.90;;;;;;5051919;28;20201;-76
2022/01/26 09:54:16;;;;;;;63.73;23.27;;;2.60;99.90;;;;;;5058328;28;20173;-76
2022/01/26 09:56:46;;;;;;;61.77;23.00;;;2.70;99.90;;;;;;5072086;28;20174;-76
2022/01/26 09:59:13;;;;;;;60.87;22.33;;;2.70;99.90;;;;;;5077000;28;20629;-75
2022/01/26 10:01:47;;;;;;;57.00;22.93;;;2.70;99.90;;;;;;5072208;28;20232;-75
2022/01/26 10:04:25;;;;;;;54.87;22.00;;;2.70;99.90;;;;;;5059876;28;20265;-75
2022/01/26 10:07:15;;;;;;;60.53;22.97;;;2.70;99.90;;;;;;5056174;28;20186;-75
2022/01/26 10:10:03;;;;;;;59.87;22.63;;;2.70;99.90;;;;;;5062253;28;20193;-75
2022/01/26 10:15:28;;;;;;;54.23;22.67;;;2.60;99.90;;;;;;5059951;28;20198;-76
2022/01/26 10:18:00;;;;;;;60.00;22.57;;;2.70;99.90;;;;;;5070602;28;20192;-76
2022/01/26 10:20:25;;;;;;;57.47;23.13;;;2.70;99.90;;;;;;5078044;28;20208;-75
2022/01/26 10:22:51;;;;;;;57.07;22.43;;;2.70;99.90;;;;;;5070581;28;20472;-75
2022/01/26 10:25:18;;;;;;;60.13;23.27;;;2.70;99.90;;;;;;5073374;28;20179;-76
2022/01/26 10:27:49;;;;;;;57.53;23.13;;;2.70;99.90;;;;;;5085098;28;20205;-75
2022/01/26 10:30:19;;;;;;;63.30;23.63;;;2.70;99.90;;;;;;5087486;28;20197;-76
2022/01/26 10:32:45;;;;;;;60.33;22.70;;;2.70;99.90;;;;;;5070323;28;20284;-75
2022/01/26 10:35:14;;;;;;;58.67;23.63;;;2.70;99.90;;;;;;5077447;28;20177;-75
2022/01/26 10:37:48;;;;;;;63.27;23.43;;;2.80;99.90;;;;;;5070524;28;20184;-75
2022/01/26 10:40:21;;;;;;;61.43;23.20;;;2.80;99.90;;;;;;5069886;28;20669;-75
2022/01/26 10:43:06;;;;;;;58.60;22.90;;;2.80;99.90;;;;;;5068587;28;20175;-75
2022/01/26 10:45:47;;;;;;;65.93;25.50;;;2.80;99.90;;;;;;5088305;28;20204;-75
2022/01/26 10:48:31;;;;;;;61.37;23.70;;;2.80;99.90;;;;;;5063777;28;20255;-75
2022/01/26 10:51:32;;;;;;;61.67;23.43;;;2.80;99.90;;;;;;5052746;28;20275;-75
2022/01/26 10:53:51;;;;;;;60.47;22.90;;;2.80;99.90;;;;;;5091113;28;20188;-75
2022/01/26 10:56:17;;;;;;;65.13;26.03;;;2.80;99.90;;;;;;5076638;28;20200;-75
2022/01/26 10:58:43;;;;;;;60.60;24.77;;;2.80;99.90;;;;;;5074775;28;20219;-75
2022/01/26 11:01:09;;;;;;;66.77;23.80;;;2.90;99.90;;;;;;5079737;28;20208;-75
2022/01/26 11:03:35;;;;;;;65.90;26.13;;;2.90;99.90;;;;;;5070578;28;20183;-76
2022/01/26 11:06:03;;;;;;;65.47;24.60;;;2.90;99.90;;;;;;5070076;28;20186;-75
2022/01/26 11:08:29;;;;;;;63.77;23.57;;;2.90;99.90;;;;;;5064914;28;20310;-76
2022/01/26 11:10:57;;;;;;;62.57;25.43;;;2.90;99.90;;;;;;5070884;28;20571;-76
2022/01/26 11:13:28;;;;;;;67.40;26.67;;;2.90;99.90;;;;;;5073609;28;20651;-76
2022/01/26 11:16:07;;;;;;;65.47;26.17;;;2.90;99.90;;;;;;5055895;28;20221;-75
2022/01/26 11:18:44;;;;;;;64.47;26.00;;;2.90;99.90;;;;;;5063638;28;20187;-75
2022/01/26 11:21:14;;;;;;;68.03;26.97;;;3.00;99.90;;;;;;5056042;28;20297;-75
2022/01/26 11:23:40;;;;;;;66.00;26.33;;;2.90;99.90;;;;;;5049621;28;20182;-75
2022/01/26 11:26:20;;;;;;;66.17;26.40;;;3.00;99.90;;;;;;5058128;28;20197;-75
2022/01/26 11:28:46;;;;;;;69.47;27.77;;;3.00;99.90;;;;;;5065973;28;20205;-75
2022/01/26 11:31:16;;;;;;;65.27;26.13;;;3.00;99.90;;;;;;5081899;28;20207;-75
2022/01/26 11:33:47;;;;;;;69.83;27.30;;;3.00;99.90;;;;;;5090414;28;20190;-75
2022/01/26 11:36:16;;;;;;;68.97;27.77;;;3.00;99.90;;;;;;5076189;28;20188;-75
2022/01/26 11:42:12;;;;;;;67.60;27.60;;;3.10;99.90;;;;;;5068634;28;20621;-75
2022/01/26 11:47:20;;;;;;;77.30;27.67;;;3.10;99.90;;;;;;5080523;28;20180;-75
2022/01/26 11:49:47;;;;;;;72.70;27.93;;;3.20;99.90;;;;;;5092879;28;20177;-74
2022/01/26 11:52:22;;;;;;;68.53;28.37;;;3.20;99.90;;;;;;5069229;28;20224;-76
2022/01/26 11:54:54;;;;;;;71.87;29.93;;;3.20;99.90;;;;;;5073320;28;20185;-74
2022/01/26 11:57:36;;;;;;;65.57;27.37;;;3.20;99.90;;;;;;5060549;28;20182;-74
2022/01/26 12:00:07;;;;;;;77.30;30.30;;;3.20;99.90;;;;;;5065779;28;20198;-75
2022/01/26 12:05:15;;;;;;;75.03;28.90;;;3.20;99.90;;;;;;5061169;28;20170;-75
2022/01/26 12:07:52;;;;;;;76.47;30.93;;;3.30;99.90;;;;;;5065159;28;20321;-75
2022/01/26 12:10:29;;;;;;;75.63;31.03;;;3.30;99.90;;;;;;5091057;28;20278;-75
2022/01/26 12:13:24;;;;;;;72.17;29.80;;;3.30;99.90;;;;;;5066233;28;20184;-75
2022/01/26 12:15:57;;;;;;;75.03;30.80;;;3.30;99.90;;;;;;5059808;28;20194;-75
2022/01/26 12:18:33;;;;;;;72.97;29.87;;;3.40;99.90;;;;;;5073718;28;20190;-75
2022/01/26 12:35:07;;;;;;;77.67;30.47;;;3.40;99.90;;;;;;5069743;28;20178;-75
2022/01/26 12:37:53;;;;;;;77.87;32.03;;;3.40;99.90;;;;;;5070458;28;20185;-75
2022/01/26 12:43:14;;;;;;;82.10;32.70;;;3.50;99.90;;;;;;5087800;28;20205;-75
2022/01/26 12:45:40;;;;;;;85.73;31.63;;;3.50;99.90;;;;;;5059257;28;20188;-75
2022/01/26 12:48:09;;;;;;;80.40;32.67;;;3.50;99.90;;;;;;5052080;28;20214;-75
2022/01/26 12:50:37;;;;;;;85.77;33.23;;;3.50;99.90;;;;;;5059508;28;20206;-75
2022/01/26 12:53:03;;;;;;;85.00;32.40;;;3.50;99.90;;;;;;5077595;28;20194;-74
2022/01/26 12:55:35;;;;;;;82.97;32.43;;;3.50;99.90;;;;;;5052292;28;20182;-75
2022/01/26 12:58:01;;;;;;;85.23;33.53;;;3.50;99.90;;;;;;5062319;28;20213;-75
2022/01/26 13:00:37;;;;;;;83.97;32.47;;;3.50;99.90;;;;;;5057457;28;20236;-75
2022/01/26 13:03:13;;;;;;;87.07;33.30;;;3.50;99.90;;;;;;5052146;28;20547;-75
2022/01/26 13:05:39;;;;;;;92.43;33.70;;;3.50;99.90;;;;;;5052061;28;20187;-75
2022/01/26 13:08:07;;;;;;;90.30;32.93;;;3.50;99.90;;;;;;5051977;28;20205;-75
2022/01/26 13:10:33;;;;;;;83.17;32.37;;;3.50;99.90;;;;;;5070955;28;20209;-75
2022/01/26 13:13:18;;;;;;;87.13;34.77;;;3.60;99.90;;;;;;5069610;28;20182;-75
2022/01/26 13:16:10;;;;;;;89.30;33.43;;;3.60;99.90;;;;;;5052326;28;20257;-75
2022/01/26 13:19:27;;;;;;;78.63;32.43;;;3.60;99.90;;;;;;5066515;28;20206;-75
2022/01/26 13:21:40;;;;;;;83.67;31.67;;;3.60;99.90;;;;;;5070211;28;20328;-75
2022/01/26 13:29:52;;;;;;;85.07;32.93;;;3.60;99.90;;;;;;5057488;28;20199;-75
2022/01/26 13:32:47;;;;;;;82.60;32.20;;;3.60;99.90;;;;;;5069365;28;20224;-76
2022/01/26 13:38:07;;;;;;;93.97;33.43;;;3.60;99.90;;;;;;5068473;28;20181;-75
2022/01/26 13:54:59;;;;;;;84.80;31.33;;;3.60;99.90;;;;;;5049271;28;20197;-75
2022/01/26 14:00:08;;;;;;;82.00;32.50;;;3.60;99.90;;;;;;5071842;28;20194;-75
2022/01/26 14:02:36;;;;;;;79.90;30.40;;;3.60;99.90;;;;;;5070202;28;20212;-75
2022/01/26 14:05:02;;;;;;;81.03;32.53;;;3.60;99.90;;;;;;5062624;28;20197;-75
2022/01/26 14:07:28;;;;;;;80.40;31.33;;;3.60;99.90;;;;;;5050878;28;20175;-75
2022/01/26 14:09:54;;;;;;;80.43;31.93;;;3.60;99.90;;;;;;5060233;28;20269;-75
2022/01/26 14:12:25;;;;;;;85.10;31.20;;;3.60;99.90;;;;;;5069736;28;20235;-75
2022/01/26 14:15:19;;;;;;;84.07;30.70;;;3.60;99.90;;;;;;5054336;28;20205;-76
2022/01/26 14:18:03;;;;;;;75.60;30.17;;;3.60;99.90;;;;;;5050538;28;20195;-75
2022/01/26 14:23:15;;;;;;;79.47;30.20;;;3.70;99.90;;;;;;5064913;28;20197;-75
2022/01/26 14:25:44;;;;;;;80.50;29.93;;;3.70;99.90;;;;;;5052986;28;20182;-75
2022/01/26 14:28:12;;;;;;;79.27;29.60;;;3.70;99.90;;;;;;5070121;28;20210;-75
2022/01/26 14:30:53;;;;;;;75.23;30.77;;;3.70;99.90;;;;;;5063132;28;20693;-75
2022/01/26 15:00:49;;;;;;;69.93;27.97;;;3.80;99.90;;;;;;5072166;28;20241;-75
2022/01/26 15:29:53;;;;;;;69.20;26.90;;;3.80;99.90;;;;;;5064387;28;20490;-75
2022/01/26 15:40:02;;;;;;;63.33;25.17;;;3.90;99.90;;;;;;5071003;28;20651;-75
2022/01/26 15:41:51;;;;;;;64.40;25.83;;;3.90;99.90;;;;;;5074142;28;20196;-75
2022/01/26 16:07:53;;;;;;;54.60;22.40;;;3.80;99.90;;;;;;5071192;28;20179;-75
2022/01/26 17:43:13;;;;;;;49.57;21.10;;;4.10;99.90;;;;;;5068909;28;20704;-75
2022/01/26 17:43:27;;;;;;;45.10;19.87;;;4.10;99.90;;;;;;5070346;28;20245;-75
2022/01/26 18:17:57;;;;;;;48.40;20.80;;;4.30;99.90;;;;;;5067582;28;20643;-75
2022/01/26 18:49:38;;;;;;;51.57;22.40;;;4.30;99.90;;;;;;5066119;28;20210;-76
2022/01/26 18:52:05;;;;;;;46.70;21.83;;;4.30;99.90;;;;;;5065732;28;20207;-77
2022/01/26 18:54:39;;;;;;;44.93;20.00;;;4.30;99.90;;;;;;5067684;28;20212;-76
2022/01/26 18:57:10;;;;;;;48.13;21.17;;;4.30;99.90;;;;;;5068850;28;20177;-76
2022/01/26 18:59:37;;;;;;;43.53;21.47;;;4.40;99.90;;;;;;5067394;28;20192;-76
2022/01/26 19:02:03;;;;;;;46.07;20.93;;;4.40;99.90;;;;;;5068384;28;20202;-75
2022/01/26 19:04:36;;;;;;;44.30;21.50;;;4.40;99.90;;;;;;5071443;28;20613;-76
2022/01/26 19:07:04;;;;;;;46.17;21.07;;;4.40;99.90;;;;;;5069823;28;20210;-74
2022/01/26 19:09:33;;;;;;;45.40;21.80;;;4.40;99.90;;;;;;5070450;28;20295;-76
2022/01/26 19:12:01;;;;;;;48.87;21.67;;;4.40;99.90;;;;;;5069610;28;20218;-76